Salida, CO (81201)

8:10 AM MDT on July 07, 2015 (GMT -0600)
kortz | | Change Station
CLOSE
Current Station
Personal Weather Station
Location: Salida, CO
Elevation: 7116 ft
Nearby Weather Stations

Elev 7116 ft 38.55 °N, 106.01 °W | Updated 7 seconds ago

Overcast
Overcast
55.8 °F
Feels Like 55.8 °F
N
8.1
Wind Variable Wind from ESE
Gusts 9.8 mph

Today
High -- | Low -- °F
--% Chance of Precip.
Yesterday
High -- | Low -- °F
Precip. -- in
5:46 AM 8:31 PM
Waning Gibbous, 64% visible
Pressure 30.41 in
Visibility 10.0 miles
Clouds Overcast 1600 ft
Dew Point 52 °F
Humidity 88%
Rainfall 0.00 in
Snow Depth Not available.
UV 2.0 out of 12
Pollen 3.40 out of 12
Air Quality Not available.
Flu Activity Not available.
METAR KANK 071355Z AUTO 12009G14KT 10SM OVC016 14/11 A3041 RMK AO1 T01350108

More Conditions Fewer Conditions

Pressure 30.41 in
Visibility 10.0 miles
Clouds Overcast 1600 ft
Dew Point 52 °F
Humidity 88%
Rainfall 0.00 in
Snow Depth Not available.
UV 2.0 out of 12
Pollen 3.40 out of 12
Air Quality Not available.
Flu Activity Not available.
METAR KANK 071355Z AUTO 12009G14KT 10SM OVC016 14/11 A3041 RMK AO1 T01350108

More Conditions Fewer Conditions

10-Day Weather Forecast

×

Almanac

Astronomy

Jul. 07, 2015 Rise Set
Actual Time
Civil Twilight
Nautical Twilight
Astronomical Twilight
Moon
Length of Visible Light
Length of Day
Tomorrow will be .
, % of the Moon is Illuminated

Today's Extremes

State Highs State Lows

Community

WunderPhotos

Upload Photos

1,835,803 photos uploaded!

WunderBlogs® & News

Nearby

Air Quality

  Air Quality AQ Index Pollutant
Not available.

Snow Depth

Station Depth Elevation

Earthquake Activity

City Distance Mag. Time & Date
Minimum magnitude displayed is 2.5.

Coastal Water Temperatures

Place Temperature

Stations

Nearby Weather Stations

Station Location Temp. Windchill Dew Point Humidity Wind Precip. Elev Updated Type